sensor_id;sensor_type;location;lat;lon;timestamp;P1;durP1;ratioP1;P2;durP2;ratioP2
37087;SDS011;23002;52.676;6.432;2023-06-04T00:02:13;1.65;;;0.98;;
37087;SDS011;23002;52.676;6.432;2023-06-04T00:04:41;3.55;;;1.13;;
37087;SDS011;23002;52.676;6.432;2023-06-04T00:07:08;1.38;;;0.73;;
37087;SDS011;23002;52.676;6.432;2023-06-04T00:09:35;3.30;;;1.40;;
37087;SDS011;23002;52.676;6.432;2023-06-04T00:12:03;2.75;;;1.42;;
37087;SDS011;23002;52.676;6.432;2023-06-04T00:14:30;2.75;;;1.00;;
37087;SDS011;23002;52.676;6.432;2023-06-04T00:16:57;4.00;;;0.95;;
37087;SDS011;23002;52.676;6.432;2023-06-04T00:19:24;3.20;;;1.13;;
37087;SDS011;23002;52.676;6.432;2023-06-04T00:21:51;1.85;;;1.00;;
37087;SDS011;23002;52.676;6.432;2023-06-04T00:24:19;2.65;;;1.27;;
37087;SDS011;23002;52.676;6.432;2023-06-04T00:26:46;4.20;;;1.33;;
37087;SDS011;23002;52.676;6.432;2023-06-04T00:29:13;3.05;;;1.75;;
37087;SDS011;23002;52.676;6.432;2023-06-04T00:31:40;4.40;;;1.38;;
37087;SDS011;23002;52.676;6.432;2023-06-04T00:34:07;9.30;;;1.83;;
37087;SDS011;23002;52.676;6.432;2023-06-04T00:36:34;2.92;;;1.30;;
37087;SDS011;23002;52.676;6.432;2023-06-04T00:39:01;3.53;;;1.38;;
37087;SDS011;23002;52.676;6.432;2023-06-04T00:41:29;3.90;;;1.33;;
37087;SDS011;23002;52.676;6.432;2023-06-04T00:43:56;2.50;;;1.20;;
37087;SDS011;23002;52.676;6.432;2023-06-04T00:46:27;3.28;;;1.40;;
37087;SDS011;23002;52.676;6.432;2023-06-04T00:48:54;3.58;;;1.60;;
37087;SDS011;23002;52.676;6.432;2023-06-04T00:51:22;2.55;;;1.30;;
37087;SDS011;23002;52.676;6.432;2023-06-04T00:53:49;3.13;;;1.33;;
37087;SDS011;23002;52.676;6.432;2023-06-04T00:56:17;4.07;;;1.42;;
37087;SDS011;23002;52.676;6.432;2023-06-04T00:58:45;3.97;;;1.33;;
37087;SDS011;23002;52.676;6.432;2023-06-04T01:01:26;6.30;;;1.83;;
37087;SDS011;23002;52.676;6.432;2023-06-04T01:03:54;3.85;;;1.52;;
37087;SDS011;23002;52.676;6.432;2023-06-04T01:06:28;4.03;;;1.58;;
37087;SDS011;23002;52.676;6.432;2023-06-04T01:08:55;3.60;;;1.60;;
37087;SDS011;23002;52.676;6.432;2023-06-04T01:11:34;4.60;;;1.45;;
37087;SDS011;23002;52.676;6.432;2023-06-04T01:14:05;8.68;;;1.80;;
37087;SDS011;23002;52.676;6.432;2023-06-04T01:16:39;5.60;;;1.77;;
37087;SDS011;23002;52.676;6.432;2023-06-04T01:19:11;5.13;;;1.73;;
37087;SDS011;23002;52.676;6.432;2023-06-04T01:21:48;4.00;;;1.73;;
37087;SDS011;23002;52.676;6.432;2023-06-04T01:24:17;5.90;;;2.50;;
37087;SDS011;23002;52.676;6.432;2023-06-04T01:26:48;4.05;;;1.92;;
37087;SDS011;23002;52.676;6.432;2023-06-04T01:29:17;4.10;;;1.85;;
37087;SDS011;23002;52.676;6.432;2023-06-04T01:31:45;5.53;;;1.83;;
37087;SDS011;23002;52.676;6.432;2023-06-04T01:34:12;5.85;;;2.15;;
37087;SDS011;23002;52.676;6.432;2023-06-04T01:36:39;4.53;;;1.73;;
37087;SDS011;23002;52.676;6.432;2023-06-04T01:39:06;4.00;;;1.75;;
37087;SDS011;23002;52.676;6.432;2023-06-04T01:41:34;2.60;;;1.70;;
37087;SDS011;23002;52.676;6.432;2023-06-04T01:44:01;3.80;;;1.77;;
37087;SDS011;23002;52.676;6.432;2023-06-04T01:46:28;6.10;;;1.60;;
37087;SDS011;23002;52.676;6.432;2023-06-04T01:48:55;3.30;;;1.83;;
37087;SDS011;23002;52.676;6.432;2023-06-04T01:51:22;3.00;;;1.67;;
37087;SDS011;23002;52.676;6.432;2023-06-04T01:53:50;3.08;;;1.85;;
37087;SDS011;23002;52.676;6.432;2023-06-04T01:56:17;9.02;;;2.08;;
37087;SDS011;23002;52.676;6.432;2023-06-04T01:58:47;5.93;;;1.77;;
37087;SDS011;23002;52.676;6.432;2023-06-04T02:01:14;4.93;;;1.58;;
37087;SDS011;23002;52.676;6.432;2023-06-04T02:03:43;6.38;;;2.10;;
37087;SDS011;23002;52.676;6.432;2023-06-04T02:06:10;3.85;;;2.05;;
37087;SDS011;23002;52.676;6.432;2023-06-04T02:08:38;5.38;;;1.55;;
37087;SDS011;23002;52.676;6.432;2023-06-04T02:11:07;8.88;;;2.20;;
37087;SDS011;23002;52.676;6.432;2023-06-04T02:13:34;4.78;;;1.88;;
37087;SDS011;23002;52.676;6.432;2023-06-04T02:16:02;6.75;;;2.67;;
37087;SDS011;23002;52.676;6.432;2023-06-04T02:18:29;4.85;;;2.40;;
37087;SDS011;23002;52.676;6.432;2023-06-04T02:20:57;9.80;;;2.53;;
37087;SDS011;23002;52.676;6.432;2023-06-04T02:23:24;6.40;;;2.42;;
37087;SDS011;23002;52.676;6.432;2023-06-04T02:25:52;5.32;;;2.00;;
37087;SDS011;23002;52.676;6.432;2023-06-04T02:28:19;7.25;;;2.47;;
37087;SDS011;23002;52.676;6.432;2023-06-04T02:30:46;5.82;;;2.35;;
37087;SDS011;23002;52.676;6.432;2023-06-04T02:33:14;8.43;;;2.17;;
37087;SDS011;23002;52.676;6.432;2023-06-04T02:35:41;9.15;;;2.75;;
37087;SDS011;23002;52.676;6.432;2023-06-04T02:38:08;6.30;;;2.63;;
37087;SDS011;23002;52.676;6.432;2023-06-04T02:40:36;6.60;;;2.17;;
37087;SDS011;23002;52.676;6.432;2023-06-04T02:43:03;6.03;;;2.08;;
37087;SDS011;23002;52.676;6.432;2023-06-04T02:45:30;8.07;;;1.88;;
37087;SDS011;23002;52.676;6.432;2023-06-04T02:47:58;4.32;;;2.10;;
37087;SDS011;23002;52.676;6.432;2023-06-04T02:50:25;7.78;;;2.70;;
37087;SDS011;23002;52.676;6.432;2023-06-04T02:52:52;3.47;;;1.98;;
37087;SDS011;23002;52.676;6.432;2023-06-04T02:55:19;5.35;;;3.03;;
37087;SDS011;23002;52.676;6.432;2023-06-04T02:57:46;7.43;;;2.35;;
37087;SDS011;23002;52.676;6.432;2023-06-04T03:00:14;3.92;;;2.13;;
37087;SDS011;23002;52.676;6.432;2023-06-04T03:02:43;6.78;;;3.38;;
37087;SDS011;23002;52.676;6.432;2023-06-04T03:05:11;10.18;;;2.70;;
37087;SDS011;23002;52.676;6.432;2023-06-04T03:07:40;4.80;;;2.42;;
37087;SDS011;23002;52.676;6.432;2023-06-04T03:10:09;5.38;;;2.30;;
37087;SDS011;23002;52.676;6.432;2023-06-04T03:12:36;5.45;;;2.17;;
37087;SDS011;23002;52.676;6.432;2023-06-04T03:15:04;7.68;;;3.00;;
37087;SDS011;23002;52.676;6.432;2023-06-04T03:17:31;6.20;;;2.53;;
37087;SDS011;23002;52.676;6.432;2023-06-04T03:19:58;6.70;;;2.50;;
37087;SDS011;23002;52.676;6.432;2023-06-04T03:22:25;6.55;;;2.83;;
37087;SDS011;23002;52.676;6.432;2023-06-04T03:24:54;12.63;;;3.28;;
37087;SDS011;23002;52.676;6.432;2023-06-04T03:27:21;8.65;;;2.65;;
37087;SDS011;23002;52.676;6.432;2023-06-04T03:29:48;7.93;;;3.05;;
37087;SDS011;23002;52.676;6.432;2023-06-04T03:32:16;11.40;;;3.10;;
37087;SDS011;23002;52.676;6.432;2023-06-04T03:34:44;6.60;;;3.00;;
37087;SDS011;23002;52.676;6.432;2023-06-04T03:37:11;12.30;;;3.45;;
37087;SDS011;23002;52.676;6.432;2023-06-04T03:39:38;10.57;;;3.63;;
37087;SDS011;23002;52.676;6.432;2023-06-04T03:42:05;6.28;;;2.97;;
37087;SDS011;23002;52.676;6.432;2023-06-04T03:44:32;7.55;;;3.10;;
37087;SDS011;23002;52.676;6.432;2023-06-04T03:46:59;13.38;;;4.38;;
37087;SDS011;23002;52.676;6.432;2023-06-04T03:49:27;12.15;;;3.42;;
37087;SDS011;23002;52.676;6.432;2023-06-04T03:51:54;7.57;;;3.40;;
37087;SDS011;23002;52.676;6.432;2023-06-04T03:54:21;10.57;;;3.47;;
37087;SDS011;23002;52.676;6.432;2023-06-04T03:56:48;11.50;;;3.10;;
37087;SDS011;23002;52.676;6.432;2023-06-04T03:59:16;5.65;;;2.88;;
37087;SDS011;23002;52.676;6.432;2023-06-04T04:01:43;9.50;;;3.25;;
37087;SDS011;23002;52.676;6.432;2023-06-04T04:04:10;7.28;;;3.20;;
37087;SDS011;23002;52.676;6.432;2023-06-04T04:06:38;6.35;;;3.35;;
37087;SDS011;23002;52.676;6.432;2023-06-04T04:09:05;10.15;;;3.88;;
37087;SDS011;23002;52.676;6.432;2023-06-04T04:11:32;9.38;;;3.50;;
37087;SDS011;23002;52.676;6.432;2023-06-04T04:13:59;9.20;;;3.38;;
37087;SDS011;23002;52.676;6.432;2023-06-04T04:16:27;7.57;;;3.00;;
37087;SDS011;23002;52.676;6.432;2023-06-04T04:18:54;12.68;;;3.65;;
37087;SDS011;23002;52.676;6.432;2023-06-04T04:21:21;6.85;;;2.95;;
37087;SDS011;23002;52.676;6.432;2023-06-04T04:23:50;9.05;;;3.00;;
37087;SDS011;23002;52.676;6.432;2023-06-04T04:26:18;9.88;;;3.42;;
37087;SDS011;23002;52.676;6.432;2023-06-04T04:28:45;9.45;;;4.88;;
37087;SDS011;23002;52.676;6.432;2023-06-04T04:31:12;9.05;;;3.47;;
37087;SDS011;23002;52.676;6.432;2023-06-04T04:33:41;10.00;;;3.00;;
37087;SDS011;23002;52.676;6.432;2023-06-04T04:36:08;7.65;;;3.47;;
37087;SDS011;23002;52.676;6.432;2023-06-04T04:38:38;8.98;;;3.40;;
37087;SDS011;23002;52.676;6.432;2023-06-04T04:41:06;5.47;;;3.25;;
37087;SDS011;23002;52.676;6.432;2023-06-04T04:43:35;9.38;;;3.70;;
37087;SDS011;23002;52.676;6.432;2023-06-04T04:46:03;8.98;;;3.60;;
37087;SDS011;23002;52.676;6.432;2023-06-04T04:48:31;11.15;;;3.28;;
37087;SDS011;23002;52.676;6.432;2023-06-04T04:50:58;5.55;;;3.13;;
37087;SDS011;23002;52.676;6.432;2023-06-04T04:53:26;7.10;;;2.72;;
37087;SDS011;23002;52.676;6.432;2023-06-04T04:55:53;11.15;;;3.80;;
37087;SDS011;23002;52.676;6.432;2023-06-04T04:58:21;10.48;;;3.95;;
37087;SDS011;23002;52.676;6.432;2023-06-04T05:00:48;8.98;;;3.83;;
37087;SDS011;23002;52.676;6.432;2023-06-04T05:03:15;5.55;;;3.17;;
37087;SDS011;23002;52.676;6.432;2023-06-04T05:05:42;6.38;;;3.35;;
37087;SDS011;23002;52.676;6.432;2023-06-04T05:08:10;12.07;;;3.45;;
37087;SDS011;23002;52.676;6.432;2023-06-04T05:10:37;11.68;;;3.65;;
37087;SDS011;23002;52.676;6.432;2023-06-04T05:13:04;5.82;;;3.17;;
37087;SDS011;23002;52.676;6.432;2023-06-04T05:15:32;7.57;;;3.30;;
37087;SDS011;23002;52.676;6.432;2023-06-04T05:17:59;8.60;;;3.38;;
37087;SDS011;23002;52.676;6.432;2023-06-04T05:20:30;5.05;;;2.13;;
37087;SDS011;23002;52.676;6.432;2023-06-04T05:22:57;6.88;;;2.90;;
37087;SDS011;23002;52.676;6.432;2023-06-04T05:25:24;7.30;;;2.00;;
37087;SDS011;23002;52.676;6.432;2023-06-04T05:27:53;6.28;;;2.38;;
37087;SDS011;23002;52.676;6.432;2023-06-04T05:30:20;5.68;;;1.90;;
37087;SDS011;23002;52.676;6.432;2023-06-04T05:32:48;6.40;;;1.75;;
37087;SDS011;23002;52.676;6.432;2023-06-04T05:35:16;4.38;;;2.13;;
37087;SDS011;23002;52.676;6.432;2023-06-04T05:37:44;4.18;;;1.45;;
37087;SDS011;23002;52.676;6.432;2023-06-04T05:40:12;9.63;;;1.67;;
37087;SDS011;23002;52.676;6.432;2023-06-04T05:42:40;5.70;;;1.58;;
37087;SDS011;23002;52.676;6.432;2023-06-04T05:45:08;5.53;;;2.10;;
37087;SDS011;23002;52.676;6.432;2023-06-04T05:47:35;4.57;;;1.55;;
37087;SDS011;23002;52.676;6.432;2023-06-04T05:50:03;4.90;;;1.85;;
37087;SDS011;23002;52.676;6.432;2023-06-04T05:52:31;4.03;;;1.80;;
37087;SDS011;23002;52.676;6.432;2023-06-04T05:54:59;3.10;;;1.70;;
37087;SDS011;23002;52.676;6.432;2023-06-04T05:57:26;3.47;;;1.48;;
37087;SDS011;23002;52.676;6.432;2023-06-04T05:59:53;5.28;;;1.30;;
37087;SDS011;23002;52.676;6.432;2023-06-04T06:02:21;4.80;;;1.65;;
37087;SDS011;23002;52.676;6.432;2023-06-04T06:04:48;3.20;;;1.17;;
37087;SDS011;23002;52.676;6.432;2023-06-04T06:07:16;2.47;;;1.48;;
37087;SDS011;23002;52.676;6.432;2023-06-04T06:09:45;6.93;;;1.77;;
37087;SDS011;23002;52.676;6.432;2023-06-04T06:12:12;4.35;;;1.52;;
37087;SDS011;23002;52.676;6.432;2023-06-04T06:14:39;4.35;;;1.60;;
37087;SDS011;23002;52.676;6.432;2023-06-04T06:17:07;6.20;;;1.10;;
37087;SDS011;23002;52.676;6.432;2023-06-04T06:19:35;5.07;;;1.60;;
37087;SDS011;23002;52.676;6.432;2023-06-04T06:22:03;4.10;;;1.42;;
37087;SDS011;23002;52.676;6.432;2023-06-04T06:24:31;3.28;;;1.10;;
37087;SDS011;23002;52.676;6.432;2023-06-04T06:26:58;5.03;;;1.50;;
37087;SDS011;23002;52.676;6.432;2023-06-04T06:29:25;4.07;;;1.23;;
37087;SDS011;23002;52.676;6.432;2023-06-04T06:31:52;3.80;;;1.23;;
37087;SDS011;23002;52.676;6.432;2023-06-04T06:34:19;3.80;;;1.38;;
37087;SDS011;23002;52.676;6.432;2023-06-04T06:36:46;2.47;;;0.98;;
37087;SDS011;23002;52.676;6.432;2023-06-04T06:39:14;6.22;;;1.30;;
37087;SDS011;23002;52.676;6.432;2023-06-04T06:41:42;3.00;;;1.27;;
37087;SDS011;23002;52.676;6.432;2023-06-04T06:44:09;3.67;;;1.38;;
37087;SDS011;23002;52.676;6.432;2023-06-04T06:46:36;3.00;;;1.33;;
37087;SDS011;23002;52.676;6.432;2023-06-04T06:49:03;4.57;;;1.15;;
37087;SDS011;23002;52.676;6.432;2023-06-04T06:51:31;5.40;;;1.33;;
37087;SDS011;23002;52.676;6.432;2023-06-04T06:53:58;5.85;;;1.27;;
37087;SDS011;23002;52.676;6.432;2023-06-04T06:56:25;3.45;;;1.40;;
37087;SDS011;23002;52.676;6.432;2023-06-04T06:58:52;3.38;;;1.70;;
37087;SDS011;23002;52.676;6.432;2023-06-04T07:01:19;3.60;;;1.60;;
37087;SDS011;23002;52.676;6.432;2023-06-04T07:03:47;5.35;;;1.20;;
37087;SDS011;23002;52.676;6.432;2023-06-04T07:06:15;2.72;;;1.00;;
37087;SDS011;23002;52.676;6.432;2023-06-04T07:08:43;4.88;;;1.35;;
37087;SDS011;23002;52.676;6.432;2023-06-04T07:11:10;3.17;;;1.20;;
37087;SDS011;23002;52.676;6.432;2023-06-04T07:13:38;2.28;;;0.93;;
37087;SDS011;23002;52.676;6.432;2023-06-04T07:16:06;4.70;;;1.27;;
37087;SDS011;23002;52.676;6.432;2023-06-04T07:18:33;3.03;;;1.23;;
37087;SDS011;23002;52.676;6.432;2023-06-04T07:21:00;2.65;;;0.82;;
37087;SDS011;23002;52.676;6.432;2023-06-04T07:23:27;2.95;;;1.20;;
37087;SDS011;23002;52.676;6.432;2023-06-04T07:25:55;2.08;;;0.70;;
37087;SDS011;23002;52.676;6.432;2023-06-04T07:28:22;4.72;;;1.23;;
37087;SDS011;23002;52.676;6.432;2023-06-04T07:30:50;2.17;;;0.85;;
37087;SDS011;23002;52.676;6.432;2023-06-04T07:33:17;3.25;;;0.80;;
37087;SDS011;23002;52.676;6.432;2023-06-04T07:35:44;2.03;;;0.77;;
37087;SDS011;23002;52.676;6.432;2023-06-04T07:38:11;3.13;;;1.00;;
37087;SDS011;23002;52.676;6.432;2023-06-04T07:40:38;3.35;;;1.00;;
37087;SDS011;23002;52.676;6.432;2023-06-04T07:43:06;2.10;;;0.98;;
37087;SDS011;23002;52.676;6.432;2023-06-04T07:45:33;4.28;;;0.88;;
37087;SDS011;23002;52.676;6.432;2023-06-04T07:48:01;6.07;;;1.10;;
37087;SDS011;23002;52.676;6.432;2023-06-04T07:50:28;5.40;;;1.17;;
37087;SDS011;23002;52.676;6.432;2023-06-04T07:55:27;2.10;;;0.70;;
37087;SDS011;23002;52.676;6.432;2023-06-04T07:57:54;1.85;;;0.80;;
37087;SDS011;23002;52.676;6.432;2023-06-04T08:00:21;1.30;;;0.65;;
37087;SDS011;23002;52.676;6.432;2023-06-04T08:02:48;5.07;;;1.10;;
37087;SDS011;23002;52.676;6.432;2023-06-04T08:05:17;2.75;;;0.93;;
37087;SDS011;23002;52.676;6.432;2023-06-04T08:07:44;6.00;;;0.70;;
37087;SDS011;23002;52.676;6.432;2023-06-04T08:10:11;3.72;;;0.60;;
37087;SDS011;23002;52.676;6.432;2023-06-04T08:12:38;2.38;;;0.80;;
37087;SDS011;23002;52.676;6.432;2023-06-04T08:15:05;2.58;;;0.80;;
37087;SDS011;23002;52.676;6.432;2023-06-04T08:17:33;1.98;;;0.75;;
37087;SDS011;23002;52.676;6.432;2023-06-04T08:20:01;3.08;;;1.02;;
37087;SDS011;23002;52.676;6.432;2023-06-04T08:22:29;2.72;;;0.70;;
37087;SDS011;23002;52.676;6.432;2023-06-04T08:24:57;5.45;;;1.23;;
37087;SDS011;23002;52.676;6.432;2023-06-04T08:27:24;1.75;;;0.63;;
37087;SDS011;23002;52.676;6.432;2023-06-04T08:29:52;2.38;;;0.57;;
37087;SDS011;23002;52.676;6.432;2023-06-04T08:32:19;2.30;;;0.73;;
37087;SDS011;23002;52.676;6.432;2023-06-04T08:34:46;3.90;;;0.63;;
37087;SDS011;23002;52.676;6.432;2023-06-04T08:37:14;1.05;;;0.60;;
37087;SDS011;23002;52.676;6.432;2023-06-04T08:39:41;3.38;;;0.70;;
37087;SDS011;23002;52.676;6.432;2023-06-04T08:42:10;4.30;;;0.70;;
37087;SDS011;23002;52.676;6.432;2023-06-04T08:44:42;2.67;;;0.65;;
37087;SDS011;23002;52.676;6.432;2023-06-04T08:47:10;1.58;;;0.45;;
37087;SDS011;23002;52.676;6.432;2023-06-04T08:49:38;4.90;;;0.75;;
37087;SDS011;23002;52.676;6.432;2023-06-04T08:52:07;4.45;;;0.82;;
37087;SDS011;23002;52.676;6.432;2023-06-04T08:54:34;1.73;;;0.55;;
37087;SDS011;23002;52.676;6.432;2023-06-04T08:57:02;1.65;;;0.77;;
37087;SDS011;23002;52.676;6.432;2023-06-04T08:59:30;2.17;;;0.75;;
37087;SDS011;23002;52.676;6.432;2023-06-04T09:01:57;2.08;;;0.70;;
37087;SDS011;23002;52.676;6.432;2023-06-04T09:04:25;0.80;;;0.50;;
37087;SDS011;23002;52.676;6.432;2023-06-04T09:06:52;2.25;;;0.80;;
37087;SDS011;23002;52.676;6.432;2023-06-04T09:09:20;2.72;;;0.68;;
37087;SDS011;23002;52.676;6.432;2023-06-04T09:11:52;1.88;;;0.50;;
37087;SDS011;23002;52.676;6.432;2023-06-04T09:16:47;2.80;;;0.60;;
37087;SDS011;23002;52.676;6.432;2023-06-04T09:19:14;3.10;;;0.68;;
37087;SDS011;23002;52.676;6.432;2023-06-04T09:21:55;1.15;;;0.40;;
37087;SDS011;23002;52.676;6.432;2023-06-04T09:24:23;2.73;;;0.63;;
37087;SDS011;23002;52.676;6.432;2023-06-04T09:26:50;2.72;;;0.80;;
37087;SDS011;23002;52.676;6.432;2023-06-04T09:29:18;3.55;;;0.68;;
37087;SDS011;23002;52.676;6.432;2023-06-04T09:31:45;2.97;;;0.50;;
37087;SDS011;23002;52.676;6.432;2023-06-04T09:34:13;1.27;;;0.47;;
37087;SDS011;23002;52.676;6.432;2023-06-04T09:36:41;2.92;;;0.65;;
37087;SDS011;23002;52.676;6.432;2023-06-04T09:39:17;1.30;;;0.55;;
37087;SDS011;23002;52.676;6.432;2023-06-04T09:41:45;6.03;;;1.00;;
37087;SDS011;23002;52.676;6.432;2023-06-04T09:44:23;1.70;;;0.40;;
37087;SDS011;23002;52.676;6.432;2023-06-04T09:46:57;2.53;;;0.55;;
37087;SDS011;23002;52.676;6.432;2023-06-04T09:49:25;3.03;;;0.40;;
37087;SDS011;23002;52.676;6.432;2023-06-04T09:51:52;2.13;;;0.65;;
37087;SDS011;23002;52.676;6.432;2023-06-04T09:54:19;1.48;;;0.47;;
37087;SDS011;23002;52.676;6.432;2023-06-04T09:56:46;1.33;;;0.60;;
37087;SDS011;23002;52.676;6.432;2023-06-04T09:59:13;1.83;;;0.40;;
37087;SDS011;23002;52.676;6.432;2023-06-04T10:01:40;0.80;;;0.40;;
37087;SDS011;23002;52.676;6.432;2023-06-04T10:04:09;1.83;;;0.40;;
37087;SDS011;23002;52.676;6.432;2023-06-04T10:06:38;0.65;;;0.30;;
37087;SDS011;23002;52.676;6.432;2023-06-04T10:09:06;2.38;;;0.50;;
37087;SDS011;23002;52.676;6.432;2023-06-04T10:11:47;2.58;;;0.60;;
37087;SDS011;23002;52.676;6.432;2023-06-04T10:16:48;1.23;;;0.50;;
37087;SDS011;23002;52.676;6.432;2023-06-04T10:19:16;3.58;;;0.47;;
37087;SDS011;23002;52.676;6.432;2023-06-04T10:21:45;1.42;;;0.30;;
37087;SDS011;23002;52.676;6.432;2023-06-04T10:24:12;2.80;;;0.60;;
37087;SDS011;23002;52.676;6.432;2023-06-04T10:26:40;3.92;;;0.93;;
37087;SDS011;23002;52.676;6.432;2023-06-04T10:29:07;4.22;;;1.27;;
37087;SDS011;23002;52.676;6.432;2023-06-04T10:31:36;0.50;;;0.40;;
37087;SDS011;23002;52.676;6.432;2023-06-04T10:34:04;0.70;;;0.40;;
37087;SDS011;23002;52.676;6.432;2023-06-04T10:36:31;1.90;;;0.63;;
37087;SDS011;23002;52.676;6.432;2023-06-04T10:38:58;3.67;;;0.50;;
37087;SDS011;23002;52.676;6.432;2023-06-04T10:41:26;2.53;;;0.55;;
37087;SDS011;23002;52.676;6.432;2023-06-04T10:44:00;1.42;;;0.45;;
37087;SDS011;23002;52.676;6.432;2023-06-04T10:46:36;2.70;;;0.52;;
37087;SDS011;23002;52.676;6.432;2023-06-04T10:49:05;1.88;;;0.70;;
37087;SDS011;23002;52.676;6.432;2023-06-04T10:51:32;1.58;;;0.47;;
37087;SDS011;23002;52.676;6.432;2023-06-04T10:54:01;1.42;;;0.38;;
37087;SDS011;23002;52.676;6.432;2023-06-04T10:56:29;1.05;;;0.35;;
37087;SDS011;23002;52.676;6.432;2023-06-04T10:58:58;2.70;;;0.30;;
37087;SDS011;23002;52.676;6.432;2023-06-04T11:01:26;1.75;;;0.68;;
37087;SDS011;23002;52.676;6.432;2023-06-04T11:03:55;4.78;;;0.50;;
37087;SDS011;23002;52.676;6.432;2023-06-04T11:06:22;1.33;;;0.40;;
37087;SDS011;23002;52.676;6.432;2023-06-04T11:09:03;4.40;;;1.38;;
37087;SDS011;23002;52.676;6.432;2023-06-04T11:11:31;1.58;;;0.50;;
37087;SDS011;23002;52.676;6.432;2023-06-04T11:14:08;1.08;;;0.50;;
37087;SDS011;23002;52.676;6.432;2023-06-04T11:16:35;2.35;;;0.50;;
37087;SDS011;23002;52.676;6.432;2023-06-04T11:19:02;1.02;;;0.40;;
37087;SDS011;23002;52.676;6.432;2023-06-04T11:21:30;2.40;;;0.60;;
37087;SDS011;23002;52.676;6.432;2023-06-04T11:23:58;2.28;;;0.55;;
37087;SDS011;23002;52.676;6.432;2023-06-04T11:28:59;1.75;;;0.40;;
37087;SDS011;23002;52.676;6.432;2023-06-04T11:31:26;2.20;;;0.80;;
37087;SDS011;23002;52.676;6.432;2023-06-04T11:33:54;1.50;;;0.47;;
37087;SDS011;23002;52.676;6.432;2023-06-04T11:36:22;2.33;;;0.70;;
37087;SDS011;23002;52.676;6.432;2023-06-04T11:39:02;1.27;;;0.50;;
37087;SDS011;23002;52.676;6.432;2023-06-04T11:41:31;0.90;;;0.45;;
37087;SDS011;23002;52.676;6.432;2023-06-04T11:44:03;1.35;;;0.60;;
37087;SDS011;23002;52.676;6.432;2023-06-04T11:46:33;0.70;;;0.50;;
37087;SDS011;23002;52.676;6.432;2023-06-04T11:49:01;1.58;;;0.50;;
37087;SDS011;23002;52.676;6.432;2023-06-04T11:51:30;0.95;;;0.40;;
37087;SDS011;23002;52.676;6.432;2023-06-04T11:53:58;3.13;;;0.50;;
37087;SDS011;23002;52.676;6.432;2023-06-04T11:56:25;4.07;;;0.57;;
37087;SDS011;23002;52.676;6.432;2023-06-04T11:58:54;3.38;;;0.60;;
37087;SDS011;23002;52.676;6.432;2023-06-04T12:01:21;4.80;;;0.80;;
37087;SDS011;23002;52.676;6.432;2023-06-04T12:03:49;1.38;;;0.52;;
37087;SDS011;23002;52.676;6.432;2023-06-04T12:06:17;1.77;;;0.45;;
37087;SDS011;23002;52.676;6.432;2023-06-04T12:08:46;2.92;;;0.50;;
37087;SDS011;23002;52.676;6.432;2023-06-04T12:11:47;1.77;;;0.40;;
37087;SDS011;23002;52.676;6.432;2023-06-04T12:14:07;1.25;;;0.32;;
37087;SDS011;23002;52.676;6.432;2023-06-04T12:16:42;1.50;;;0.40;;
37087;SDS011;23002;52.676;6.432;2023-06-04T12:19:10;2.15;;;0.52;;
37087;SDS011;23002;52.676;6.432;2023-06-04T12:21:38;0.63;;;0.40;;
37087;SDS011;23002;52.676;6.432;2023-06-04T12:26:34;1.98;;;0.68;;
37087;SDS011;23002;52.676;6.432;2023-06-04T12:29:08;0.85;;;0.40;;
37087;SDS011;23002;52.676;6.432;2023-06-04T12:31:37;2.13;;;0.60;;
37087;SDS011;23002;52.676;6.432;2023-06-04T12:34:04;1.40;;;0.55;;
37087;SDS011;23002;52.676;6.432;2023-06-04T12:36:31;1.90;;;0.55;;
37087;SDS011;23002;52.676;6.432;2023-06-04T12:39:03;1.45;;;0.35;;
37087;SDS011;23002;52.676;6.432;2023-06-04T12:41:31;1.08;;;0.35;;
37087;SDS011;23002;52.676;6.432;2023-06-04T12:43:59;0.82;;;0.40;;
37087;SDS011;23002;52.676;6.432;2023-06-04T12:46:27;3.38;;;0.90;;
37087;SDS011;23002;52.676;6.432;2023-06-04T12:48:54;1.75;;;0.55;;
37087;SDS011;23002;52.676;6.432;2023-06-04T12:51:21;2.47;;;0.40;;
37087;SDS011;23002;52.676;6.432;2023-06-04T12:53:49;1.08;;;0.65;;
37087;SDS011;23002;52.676;6.432;2023-06-04T12:56:17;1.98;;;0.55;;
37087;SDS011;23002;52.676;6.432;2023-06-04T12:58:44;2.40;;;0.63;;
37087;SDS011;23002;52.676;6.432;2023-06-04T13:01:11;0.88;;;0.50;;
37087;SDS011;23002;52.676;6.432;2023-06-04T13:03:39;1.50;;;0.40;;
37087;SDS011;23002;52.676;6.432;2023-06-04T13:06:07;2.35;;;0.50;;
37087;SDS011;23002;52.676;6.432;2023-06-04T13:08:35;0.80;;;0.43;;
37087;SDS011;23002;52.676;6.432;2023-06-04T13:11:02;1.55;;;0.45;;
37087;SDS011;23002;52.676;6.432;2023-06-04T13:13:30;0.70;;;0.35;;
37087;SDS011;23002;52.676;6.432;2023-06-04T13:15:57;1.50;;;0.88;;
37087;SDS011;23002;52.676;6.432;2023-06-04T13:18:25;1.10;;;0.60;;
37087;SDS011;23002;52.676;6.432;2023-06-04T13:20:52;1.08;;;0.40;;
37087;SDS011;23002;52.676;6.432;2023-06-04T13:23:19;1.40;;;0.60;;
37087;SDS011;23002;52.676;6.432;2023-06-04T13:25:47;2.47;;;0.60;;
37087;SDS011;23002;52.676;6.432;2023-06-04T13:28:14;0.63;;;0.40;;
37087;SDS011;23002;52.676;6.432;2023-06-04T13:30:42;2.22;;;0.65;;
37087;SDS011;23002;52.676;6.432;2023-06-04T13:33:09;2.22;;;0.52;;
37087;SDS011;23002;52.676;6.432;2023-06-04T13:35:36;1.02;;;0.52;;
37087;SDS011;23002;52.676;6.432;2023-06-04T13:38:04;1.08;;;0.40;;
37087;SDS011;23002;52.676;6.432;2023-06-04T13:40:34;1.50;;;0.73;;
37087;SDS011;23002;52.676;6.432;2023-06-04T13:43:02;1.45;;;0.77;;
37087;SDS011;23002;52.676;6.432;2023-06-04T13:45:29;4.07;;;0.82;;
37087;SDS011;23002;52.676;6.432;2023-06-04T13:47:56;2.00;;;1.00;;
37087;SDS011;23002;52.676;6.432;2023-06-04T13:50:28;3.00;;;0.55;;
37087;SDS011;23002;52.676;6.432;2023-06-04T13:52:55;1.98;;;0.60;;
37087;SDS011;23002;52.676;6.432;2023-06-04T13:55:23;3.47;;;0.82;;
37087;SDS011;23002;52.676;6.432;2023-06-04T13:57:50;1.70;;;0.60;;
37087;SDS011;23002;52.676;6.432;2023-06-04T14:00:17;1.25;;;0.60;;
37087;SDS011;23002;52.676;6.432;2023-06-04T14:02:46;1.10;;;0.65;;
37087;SDS011;23002;52.676;6.432;2023-06-04T14:05:14;1.00;;;0.60;;
37087;SDS011;23002;52.676;6.432;2023-06-04T14:07:42;1.35;;;0.47;;
37087;SDS011;23002;52.676;6.432;2023-06-04T14:10:10;1.15;;;0.70;;
37087;SDS011;23002;52.676;6.432;2023-06-04T14:12:38;3.67;;;0.50;;
37087;SDS011;23002;52.676;6.432;2023-06-04T14:15:09;3.35;;;0.77;;
37087;SDS011;23002;52.676;6.432;2023-06-04T14:17:40;0.88;;;0.60;;
37087;SDS011;23002;52.676;6.432;2023-06-04T14:20:07;3.03;;;1.02;;
37087;SDS011;23002;52.676;6.432;2023-06-04T14:22:35;0.65;;;0.45;;
37087;SDS011;23002;52.676;6.432;2023-06-04T14:25:03;1.05;;;0.47;;
37087;SDS011;23002;52.676;6.432;2023-06-04T14:27:31;2.50;;;0.63;;
37087;SDS011;23002;52.676;6.432;2023-06-04T14:29:58;2.03;;;0.70;;
37087;SDS011;23002;52.676;6.432;2023-06-04T14:32:25;3.75;;;0.90;;
37087;SDS011;23002;52.676;6.432;2023-06-04T14:34:53;1.30;;;0.68;;
37087;SDS011;23002;52.676;6.432;2023-06-04T14:37:21;1.42;;;0.82;;
37087;SDS011;23002;52.676;6.432;2023-06-04T14:39:48;1.70;;;0.70;;
37087;SDS011;23002;52.676;6.432;2023-06-04T14:42:15;1.60;;;0.60;;
37087;SDS011;23002;52.676;6.432;2023-06-04T14:44:43;5.32;;;0.70;;
37087;SDS011;23002;52.676;6.432;2023-06-04T14:47:10;3.75;;;0.93;;
37087;SDS011;23002;52.676;6.432;2023-06-04T14:49:37;1.88;;;0.70;;
37087;SDS011;23002;52.676;6.432;2023-06-04T14:52:04;1.42;;;0.55;;
37087;SDS011;23002;52.676;6.432;2023-06-04T14:54:33;2.55;;;0.70;;
37087;SDS011;23002;52.676;6.432;2023-06-04T14:57:01;1.60;;;0.90;;
37087;SDS011;23002;52.676;6.432;2023-06-04T14:59:29;2.13;;;0.88;;
37087;SDS011;23002;52.676;6.432;2023-06-04T15:01:56;1.55;;;0.52;;
37087;SDS011;23002;52.676;6.432;2023-06-04T15:04:23;2.33;;;1.10;;
37087;SDS011;23002;52.676;6.432;2023-06-04T15:06:50;2.65;;;0.88;;